sensor_id;sensor_type;location;lat;lon;timestamp;temperature;humidity
70762;DHT22;58360;0.000;0.000;2022-12-07T07:47:22;5.20;91.70
70762;DHT22;58360;0.000;0.000;2022-12-07T07:49:48;5.20;92.20
70762;DHT22;58360;0.000;0.000;2022-12-07T07:52:14;5.20;92.10
70762;DHT22;58360;0.000;0.000;2022-12-07T07:54:40;5.20;91.90
70762;DHT22;58360;0.000;0.000;2022-12-07T07:57:06;5.30;91.70
70762;DHT22;58360;0.000;0.000;2022-12-07T07:59:31;5.50;91.30
70762;DHT22;58360;0.000;0.000;2022-12-07T08:01:57;5.40;91.00
70762;DHT22;58360;0.000;0.000;2022-12-07T08:04:23;5.50;91.30
70762;DHT22;58360;0.000;0.000;2022-12-07T08:06:49;5.30;91.50
70762;DHT22;58360;0.000;0.000;2022-12-07T08:09:15;5.30;91.70
70762;DHT22;58360;0.000;0.000;2022-12-07T08:11:41;5.20;91.90
70762;DHT22;58360;0.000;0.000;2022-12-07T08:56:27;6.00;90.40
70762;DHT22;58360;0.000;0.000;2022-12-07T09:02:16;6.30;89.70
70762;DHT22;58360;0.000;0.000;2022-12-07T09:04:41;6.20;90.10
70762;DHT22;58360;0.000;0.000;2022-12-07T09:07:07;6.30;89.60
70762;DHT22;58360;0.000;0.000;2022-12-07T09:09:33;6.40;88.90
70762;DHT22;58360;0.000;0.000;2022-12-07T09:11:58;6.30;89.50
70762;DHT22;58360;0.000;0.000;2022-12-07T09:14:24;6.40;89.40
70762;DHT22;58360;0.000;0.000;2022-12-07T09:16:50;6.40;89.50
70762;DHT22;58360;0.000;0.000;2022-12-07T09:19:15;6.40;89.40
70762;DHT22;58360;0.000;0.000;2022-12-07T09:21:41;6.30;89.50
70762;DHT22;58360;0.000;0.000;2022-12-07T09:24:07;6.50;88.80
70762;DHT22;58360;0.000;0.000;2022-12-07T09:26:33;6.50;88.70
70762;DHT22;58360;0.000;0.000;2022-12-07T09:29:01;6.50;89.50
70762;DHT22;58360;0.000;0.000;2022-12-07T09:31:27;6.60;89.40
70762;DHT22;58360;0.000;0.000;2022-12-07T09:34:02;6.70;89.30
70762;DHT22;58360;0.000;0.000;2022-12-07T09:36:28;6.80;88.30
70762;DHT22;58360;0.000;0.000;2022-12-07T09:38:54;7.00;87.30
70762;DHT22;58360;0.000;0.000;2022-12-07T09:41:21;7.00;86.90
70762;DHT22;58360;0.000;0.000;2022-12-07T09:43:48;7.00;87.30
70762;DHT22;58360;0.000;0.000;2022-12-07T09:46:15;7.00;87.60
70762;DHT22;58360;0.000;0.000;2022-12-07T09:48:43;7.00;87.90
70762;DHT22;58360;0.000;0.000;2022-12-07T09:51:21;7.00;87.30
70762;DHT22;58360;0.000;0.000;2022-12-07T09:53:48;7.10;87.30
70762;DHT22;58360;0.000;0.000;2022-12-07T09:56:15;6.90;88.10
70762;DHT22;58360;0.000;0.000;2022-12-07T09:58:42;7.20;87.40
70762;DHT22;58360;0.000;0.000;2022-12-07T10:03:39;7.20;88.30
70762;DHT22;58360;0.000;0.000;2022-12-07T10:06:06;7.30;87.70
70762;DHT22;58360;0.000;0.000;2022-12-07T10:08:32;7.40;88.70
70762;DHT22;58360;0.000;0.000;2022-12-07T10:10:58;7.50;86.90
70762;DHT22;58360;0.000;0.000;2022-12-07T10:13:41;7.70;85.60
70762;DHT22;58360;0.000;0.000;2022-12-07T10:16:35;7.60;86.00
70762;DHT22;58360;0.000;0.000;2022-12-07T10:19:22;7.70;86.30
70762;DHT22;58360;0.000;0.000;2022-12-07T10:22:13;7.80;85.60
70762;DHT22;58360;0.000;0.000;2022-12-07T10:24:41;7.90;85.30
70762;DHT22;58360;0.000;0.000;2022-12-07T10:27:22;7.80;85.50
70762;DHT22;58360;0.000;0.000;2022-12-07T10:29:52;7.80;85.50
70762;DHT22;58360;0.000;0.000;2022-12-07T10:34:43;7.90;86.10
70762;DHT22;58360;0.000;0.000;2022-12-07T10:39:55;8.30;84.60
70762;DHT22;58360;0.000;0.000;2022-12-07T10:42:24;8.50;83.30
70762;DHT22;58360;0.000;0.000;2022-12-07T10:45:16;8.50;83.90
70762;DHT22;58360;0.000;0.000;2022-12-07T10:47:47;8.40;83.70
70762;DHT22;58360;0.000;0.000;2022-12-07T10:53:11;8.40;83.10
70762;DHT22;58360;0.000;0.000;2022-12-07T10:56:31;8.40;83.30
70762;DHT22;58360;0.000;0.000;2022-12-07T11:01:48;8.40;83.30
70762;DHT22;58360;0.000;0.000;2022-12-07T11:10:35;8.40;82.10
70762;DHT22;58360;0.000;0.000;2022-12-07T11:16:03;8.10;84.50
70762;DHT22;58360;0.000;0.000;2022-12-07T11:24:17;8.00;86.40
70762;DHT22;58360;0.000;0.000;2022-12-07T11:30:07;8.20;85.00
70762;DHT22;58360;0.000;0.000;2022-12-07T11:36:33;8.70;83.00
70762;DHT22;58360;0.000;0.000;2022-12-07T11:45:31;8.80;83.50
70762;DHT22;58360;0.000;0.000;2022-12-07T11:48:02;8.90;82.80
70762;DHT22;58360;0.000;0.000;2022-12-07T12:00:26;9.00;81.80
70762;DHT22;58360;0.000;0.000;2022-12-07T12:03:12;8.90;82.10
70762;DHT22;58360;0.000;0.000;2022-12-07T12:05:41;9.00;81.90
70762;DHT22;58360;0.000;0.000;2022-12-07T12:18:48;9.10;81.60
70762;DHT22;58360;0.000;0.000;2022-12-07T12:42:54;8.90;80.50
70762;DHT22;58360;0.000;0.000;2022-12-07T13:00:43;8.20;85.90
70762;DHT22;58360;0.000;0.000;2022-12-07T13:03:24;8.10;85.60
70762;DHT22;58360;0.000;0.000;2022-12-07T13:08:43;8.20;85.00
70762;DHT22;58360;0.000;0.000;2022-12-07T13:11:39;8.20;83.40
70762;DHT22;58360;0.000;0.000;2022-12-07T13:17:11;8.20;84.40
70762;DHT22;58360;0.000;0.000;2022-12-07T13:25:30;8.60;84.50
70762;DHT22;58360;0.000;0.000;2022-12-07T13:28:17;8.70;82.90
70762;DHT22;58360;0.000;0.000;2022-12-07T13:33:24;8.60;82.40
70762;DHT22;58360;0.000;0.000;2022-12-07T13:35:56;8.60;83.00
70762;DHT22;58360;0.000;0.000;2022-12-07T13:43:45;8.50;83.30
70762;DHT22;58360;0.000;0.000;2022-12-07T13:46:12;8.50;83.50
70762;DHT22;58360;0.000;0.000;2022-12-07T13:48:49;8.40;84.60
70762;DHT22;58360;0.000;0.000;2022-12-07T13:51:24;8.30;84.80
70762;DHT22;58360;0.000;0.000;2022-12-07T13:53:53;8.20;85.60
70762;DHT22;58360;0.000;0.000;2022-12-07T13:56:22;8.20;86.90
70762;DHT22;58360;0.000;0.000;2022-12-07T13:58:48;8.20;87.10
70762;DHT22;58360;0.000;0.000;2022-12-07T14:01:13;8.20;86.60
70762;DHT22;58360;0.000;0.000;2022-12-07T14:03:40;8.10;85.90
70762;DHT22;58360;0.000;0.000;2022-12-07T14:06:16;8.00;86.40
70762;DHT22;58360;0.000;0.000;2022-12-07T14:08:43;7.80;87.90
70762;DHT22;58360;0.000;0.000;2022-12-07T14:11:17;7.80;87.90
70762;DHT22;58360;0.000;0.000;2022-12-07T14:18:51;7.70;88.70
70762;DHT22;58360;0.000;0.000;2022-12-07T14:21:19;7.70;88.80
70762;DHT22;58360;0.000;0.000;2022-12-07T14:26:29;7.50;88.70
70762;DHT22;58360;0.000;0.000;2022-12-07T14:29:18;7.50;88.60
70762;DHT22;58360;0.000;0.000;2022-12-07T14:31:44;7.30;89.20
70762;DHT22;58360;0.000;0.000;2022-12-07T14:34:13;7.30;87.90
70762;DHT22;58360;0.000;0.000;2022-12-07T14:36:38;7.30;88.40
70762;DHT22;58360;0.000;0.000;2022-12-07T14:39:04;7.30;88.80
70762;DHT22;58360;0.000;0.000;2022-12-07T14:41:30;7.30;89.00
70762;DHT22;58360;0.000;0.000;2022-12-07T14:44:14;7.30;88.80
70762;DHT22;58360;0.000;0.000;2022-12-07T14:46:39;7.30;88.00
70762;DHT22;58360;0.000;0.000;2022-12-07T14:49:05;7.30;88.90
70762;DHT22;58360;0.000;0.000;2022-12-07T14:51:31;7.30;88.80
70762;DHT22;58360;0.000;0.000;2022-12-07T14:53:58;7.20;88.80
70762;DHT22;58360;0.000;0.000;2022-12-07T14:56:24;7.20;89.20
70762;DHT22;58360;0.000;0.000;2022-12-07T14:58:50;7.20;88.70
70762;DHT22;58360;0.000;0.000;2022-12-07T15:01:16;7.20;87.70
70762;DHT22;58360;0.000;0.000;2022-12-07T15:03:41;7.10;88.00
70762;DHT22;58360;0.000;0.000;2022-12-07T15:06:07;7.00;88.80
70762;DHT22;58360;0.000;0.000;2022-12-07T15:08:33;6.90;89.00
70762;DHT22;58360;0.000;0.000;2022-12-07T15:10:59;6.90;88.80
70762;DHT22;58360;0.000;0.000;2022-12-07T15:13:24;6.80;89.10
70762;DHT22;58360;0.000;0.000;2022-12-07T15:16:18;6.70;88.90
70762;DHT22;58360;0.000;0.000;2022-12-07T15:18:44;6.70;88.90
70762;DHT22;58360;0.000;0.000;2022-12-07T15:21:15;6.70;88.90
70762;DHT22;58360;0.000;0.000;2022-12-07T15:23:41;6.70;89.10
70762;DHT22;58360;0.000;0.000;2022-12-07T15:26:07;6.70;88.90
70762;DHT22;58360;0.000;0.000;2022-12-07T15:28:34;6.60;89.50
70762;DHT22;58360;0.000;0.000;2022-12-07T15:31:00;6.60;88.90
70762;DHT22;58360;0.000;0.000;2022-12-07T15:33:26;6.60;89.20
70762;DHT22;58360;0.000;0.000;2022-12-07T15:35:52;6.50;89.50
70762;DHT22;58360;0.000;0.000;2022-12-07T15:38:17;6.40;89.90
70762;DHT22;58360;0.000;0.000;2022-12-07T15:40:46;6.30;90.00
70762;DHT22;58360;0.000;0.000;2022-12-07T15:43:12;6.30;90.40
70762;DHT22;58360;0.000;0.000;2022-12-07T15:45:56;6.30;90.10
70762;DHT22;58360;0.000;0.000;2022-12-07T15:48:22;6.20;90.10
70762;DHT22;58360;0.000;0.000;2022-12-07T15:50:47;6.20;90.30
70762;DHT22;58360;0.000;0.000;2022-12-07T15:53:13;6.20;90.40
70762;DHT22;58360;0.000;0.000;2022-12-07T15:55:39;6.20;90.50
70762;DHT22;58360;0.000;0.000;2022-12-07T15:58:06;6.30;90.60
70762;DHT22;58360;0.000;0.000;2022-12-07T16:00:32;6.30;90.40
70762;DHT22;58360;0.000;0.000;2022-12-07T16:02:57;6.40;90.10
70762;DHT22;58360;0.000;0.000;2022-12-07T16:05:23;6.50;90.20
70762;DHT22;58360;0.000;0.000;2022-12-07T16:07:49;6.40;90.20
70762;DHT22;58360;0.000;0.000;2022-12-07T16:10:15;6.50;90.10
70762;DHT22;58360;0.000;0.000;2022-12-07T16:12:40;6.50;90.20
70762;DHT22;58360;0.000;0.000;2022-12-07T16:15:06;6.50;90.40
70762;DHT22;58360;0.000;0.000;2022-12-07T16:17:32;6.50;90.30
70762;DHT22;58360;0.000;0.000;2022-12-07T16:19:58;6.40;90.20
70762;DHT22;58360;0.000;0.000;2022-12-07T16:22:24;6.50;90.10
70762;DHT22;58360;0.000;0.000;2022-12-07T16:24:49;6.60;89.90
70762;DHT22;58360;0.000;0.000;2022-12-07T16:27:15;6.70;89.50
70762;DHT22;58360;0.000;0.000;2022-12-07T16:29:41;6.70;88.80
70762;DHT22;58360;0.000;0.000;2022-12-07T16:32:07;6.70;89.20
70762;DHT22;58360;0.000;0.000;2022-12-07T16:34:32;6.60;89.70
70762;DHT22;58360;0.000;0.000;2022-12-07T16:36:58;6.60;89.60
70762;DHT22;58360;0.000;0.000;2022-12-07T16:39:23;6.60;89.30
70762;DHT22;58360;0.000;0.000;2022-12-07T16:41:49;6.60;89.40
70762;DHT22;58360;0.000;0.000;2022-12-07T16:44:15;6.70;88.70
70762;DHT22;58360;0.000;0.000;2022-12-07T16:46:41;6.60;88.60
70762;DHT22;58360;0.000;0.000;2022-12-07T16:49:09;6.60;88.60
70762;DHT22;58360;0.000;0.000;2022-12-07T16:51:36;6.60;88.00
70762;DHT22;58360;0.000;0.000;2022-12-07T16:54:02;6.60;88.30
70762;DHT22;58360;0.000;0.000;2022-12-07T16:56:28;6.70;87.40
70762;DHT22;58360;0.000;0.000;2022-12-07T16:58:54;6.70;87.60
70762;DHT22;58360;0.000;0.000;2022-12-07T17:01:21;6.60;88.00
70762;DHT22;58360;0.000;0.000;2022-12-07T17:03:53;6.70;87.10
70762;DHT22;58360;0.000;0.000;2022-12-07T17:06:21;6.80;86.80
70762;DHT22;58360;0.000;0.000;2022-12-07T17:08:48;6.70;87.60
70762;DHT22;58360;0.000;0.000;2022-12-07T17:11:17;6.70;87.40
70762;DHT22;58360;0.000;0.000;2022-12-07T17:13:44;6.70;87.30
70762;DHT22;58360;0.000;0.000;2022-12-07T17:16:28;6.70;87.50
70762;DHT22;58360;0.000;0.000;2022-12-07T17:18:54;6.70;87.40
70762;DHT22;58360;0.000;0.000;2022-12-07T17:21:20;6.60;87.60
70762;DHT22;58360;0.000;0.000;2022-12-07T17:23:47;6.70;87.50
70762;DHT22;58360;0.000;0.000;2022-12-07T17:26:19;6.60;87.70
70762;DHT22;58360;0.000;0.000;2022-12-07T17:28:45;6.70;87.50
70762;DHT22;58360;0.000;0.000;2022-12-07T17:31:12;6.70;87.50
70762;DHT22;58360;0.000;0.000;2022-12-07T17:33:38;6.60;86.90
70762;DHT22;58360;0.000;0.000;2022-12-07T17:36:16;6.70;86.60
70762;DHT22;58360;0.000;0.000;2022-12-07T17:38:42;6.70;86.90
70762;DHT22;58360;0.000;0.000;2022-12-07T17:41:12;6.60;87.30
70762;DHT22;58360;0.000;0.000;2022-12-07T17:43:58;6.60;87.20
70762;DHT22;58360;0.000;0.000;2022-12-07T17:46:24;6.50;88.20
70762;DHT22;58360;0.000;0.000;2022-12-07T17:48:50;6.40;88.40
70762;DHT22;58360;0.000;0.000;2022-12-07T17:51:18;6.40;88.40
70762;DHT22;58360;0.000;0.000;2022-12-07T17:54:02;6.40;88.40
70762;DHT22;58360;0.000;0.000;2022-12-07T17:56:28;6.40;88.20
70762;DHT22;58360;0.000;0.000;2022-12-07T17:58:54;6.40;88.10
70762;DHT22;58360;0.000;0.000;2022-12-07T18:01:19;6.30;88.50
70762;DHT22;58360;0.000;0.000;2022-12-07T18:03:45;6.30;88.40
70762;DHT22;58360;0.000;0.000;2022-12-07T18:06:10;6.40;88.50
70762;DHT22;58360;0.000;0.000;2022-12-07T18:08:36;6.50;87.30
70762;DHT22;58360;0.000;0.000;2022-12-07T18:11:04;6.70;85.90
70762;DHT22;58360;0.000;0.000;2022-12-07T18:13:31;6.70;86.20
70762;DHT22;58360;0.000;0.000;2022-12-07T18:16:01;6.80;85.30
70762;DHT22;58360;0.000;0.000;2022-12-07T18:18:27;6.80;85.40
70762;DHT22;58360;0.000;0.000;2022-12-07T18:20:53;6.70;85.90
70762;DHT22;58360;0.000;0.000;2022-12-07T18:23:19;6.50;86.90
70762;DHT22;58360;0.000;0.000;2022-12-07T18:25:49;6.40;87.80
70762;DHT22;58360;0.000;0.000;2022-12-07T18:28:15;6.40;87.80
70762;DHT22;58360;0.000;0.000;2022-12-07T18:30:40;6.40;87.60
70762;DHT22;58360;0.000;0.000;2022-12-07T18:33:06;6.40;87.60
70762;DHT22;58360;0.000;0.000;2022-12-07T18:35:32;6.40;87.10
70762;DHT22;58360;0.000;0.000;2022-12-07T18:37:59;6.50;86.60
70762;DHT22;58360;0.000;0.000;2022-12-07T18:40:25;6.50;86.50
70762;DHT22;58360;0.000;0.000;2022-12-07T18:42:50;6.50;86.10
70762;DHT22;58360;0.000;0.000;2022-12-07T18:45:16;6.50;86.50
70762;DHT22;58360;0.000;0.000;2022-12-07T18:47:42;6.40;86.50
70762;DHT22;58360;0.000;0.000;2022-12-07T18:50:07;6.40;87.00
70762;DHT22;58360;0.000;0.000;2022-12-07T18:52:33;6.30;87.30
70762;DHT22;58360;0.000;0.000;2022-12-07T18:54:59;6.40;87.00
70762;DHT22;58360;0.000;0.000;2022-12-07T18:57:27;6.50;86.50
70762;DHT22;58360;0.000;0.000;2022-12-07T18:59:53;6.70;86.20
70762;DHT22;58360;0.000;0.000;2022-12-07T19:02:18;6.50;86.80
70762;DHT22;58360;0.000;0.000;2022-12-07T19:04:44;6.50;87.60
70762;DHT22;58360;0.000;0.000;2022-12-07T19:07:10;6.40;87.90
70762;DHT22;58360;0.000;0.000;2022-12-07T19:09:36;6.40;88.80
70762;DHT22;58360;0.000;0.000;2022-12-07T19:12:02;6.40;89.10
70762;DHT22;58360;0.000;0.000;2022-12-07T19:14:35;6.40;89.30
70762;DHT22;58360;0.000;0.000;2022-12-07T19:17:09;6.40;89.50
70762;DHT22;58360;0.000;0.000;2022-12-07T19:19:37;6.60;88.80
70762;DHT22;58360;0.000;0.000;2022-12-07T19:22:04;6.40;88.40
70762;DHT22;58360;0.000;0.000;2022-12-07T19:24:31;6.50;87.70
70762;DHT22;58360;0.000;0.000;2022-12-07T19:26:57;6.50;88.10
70762;DHT22;58360;0.000;0.000;2022-12-07T19:29:23;6.50;87.20
70762;DHT22;58360;0.000;0.000;2022-12-07T19:31:49;6.60;87.10
70762;DHT22;58360;0.000;0.000;2022-12-07T19:34:16;6.50;87.40
70762;DHT22;58360;0.000;0.000;2022-12-07T19:36:42;6.50;86.40
70762;DHT22;58360;0.000;0.000;2022-12-07T19:39:08;6.40;86.90
70762;DHT22;58360;0.000;0.000;2022-12-07T19:41:34;6.40;86.60
70762;DHT22;58360;0.000;0.000;2022-12-07T19:44:05;6.40;86.80
70762;DHT22;58360;0.000;0.000;2022-12-07T19:46:31;6.20;87.80
70762;DHT22;58360;0.000;0.000;2022-12-07T19:48:57;6.00;88.70
70762;DHT22;58360;0.000;0.000;2022-12-07T19:51:25;6.00;89.00
70762;DHT22;58360;0.000;0.000;2022-12-07T19:53:51;6.10;88.70
70762;DHT22;58360;0.000;0.000;2022-12-07T19:56:18;6.10;88.60
70762;DHT22;58360;0.000;0.000;2022-12-07T19:58:44;6.10;89.00
70762;DHT22;58360;0.000;0.000;2022-12-07T20:01:10;6.20;88.40
70762;DHT22;58360;0.000;0.000;2022-12-07T20:03:35;6.30;88.30
70762;DHT22;58360;0.000;0.000;2022-12-07T20:06:07;6.10;88.70
70762;DHT22;58360;0.000;0.000;2022-12-07T20:08:33;6.00;89.00
70762;DHT22;58360;0.000;0.000;2022-12-07T20:10:59;6.00;89.10
70762;DHT22;58360;0.000;0.000;2022-12-07T20:13:24;6.00;88.90
70762;DHT22;58360;0.000;0.000;2022-12-07T20:15:57;6.10;88.80
70762;DHT22;58360;0.000;0.000;2022-12-07T20:18:23;6.10;89.30
70762;DHT22;58360;0.000;0.000;2022-12-07T20:20:53;6.10;88.80
70762;DHT22;58360;0.000;0.000;2022-12-07T20:23:23;6.10;88.30
70762;DHT22;58360;0.000;0.000;2022-12-07T20:25:49;6.30;87.70
70762;DHT22;58360;0.000;0.000;2022-12-07T20:28:15;6.30;87.80
70762;DHT22;58360;0.000;0.000;2022-12-07T20:30:52;6.40;87.50
70762;DHT22;58360;0.000;0.000;2022-12-07T20:33:19;6.40;87.40
70762;DHT22;58360;0.000;0.000;2022-12-07T20:35:45;6.30;87.80
70762;DHT22;58360;0.000;0.000;2022-12-07T20:38:11;6.20;88.90
70762;DHT22;58360;0.000;0.000;2022-12-07T20:40:37;6.20;88.70
70762;DHT22;58360;0.000;0.000;2022-12-07T20:43:04;6.20;88.70
70762;DHT22;58360;0.000;0.000;2022-12-07T20:45:30;6.10;89.10
70762;DHT22;58360;0.000;0.000;2022-12-07T20:47:56;6.00;89.30
70762;DHT22;58360;0.000;0.000;2022-12-07T20:50:21;5.90;90.00
70762;DHT22;58360;0.000;0.000;2022-12-07T20:52:47;6.10;89.80
70762;DHT22;58360;0.000;0.000;2022-12-07T20:55:13;6.00;89.90
70762;DHT22;58360;0.000;0.000;2022-12-07T20:57:39;6.10;89.40
70762;DHT22;58360;0.000;0.000;2022-12-07T21:00:07;6.10;88.90
70762;DHT22;58360;0.000;0.000;2022-12-07T21:02:33;6.20;88.40
70762;DHT22;58360;0.000;0.000;2022-12-07T21:04:59;6.00;89.40
70762;DHT22;58360;0.000;0.000;2022-12-07T21:07:25;6.10;89.20
70762;DHT22;58360;0.000;0.000;2022-12-07T21:09:51;6.00;89.90
70762;DHT22;58360;0.000;0.000;2022-12-07T21:12:18;6.10;89.10
70762;DHT22;58360;0.000;0.000;2022-12-07T21:14:43;6.10;89.50
70762;DHT22;58360;0.000;0.000;2022-12-07T21:17:09;6.10;89.60
70762;DHT22;58360;0.000;0.000;2022-12-07T21:19:36;6.20;89.50
70762;DHT22;58360;0.000;0.000;2022-12-07T21:22:02;6.00;90.00
70762;DHT22;58360;0.000;0.000;2022-12-07T21:24:28;6.10;89.70
70762;DHT22;58360;0.000;0.000;2022-12-07T21:26:53;6.20;89.30
70762;DHT22;58360;0.000;0.000;2022-12-07T21:29:19;6.10;89.60
70762;DHT22;58360;0.000;0.000;2022-12-07T21:31:45;6.00;90.10
70762;DHT22;58360;0.000;0.000;2022-12-07T21:34:10;6.00;90.20
70762;DHT22;58360;0.000;0.000;2022-12-07T21:36:36;6.00;90.10
70762;DHT22;58360;0.000;0.000;2022-12-07T21:39:02;6.20;89.50
70762;DHT22;58360;0.000;0.000;2022-12-07T21:41:31;6.20;89.90
70762;DHT22;58360;0.000;0.000;2022-12-07T21:43:57;6.20;89.80
70762;DHT22;58360;0.000;0.000;2022-12-07T21:46:25;6.30;89.50
70762;DHT22;58360;0.000;0.000;2022-12-07T21:48:53;6.20;90.00
70762;DHT22;58360;0.000;0.000;2022-12-07T21:51:21;6.10;90.30
70762;DHT22;58360;0.000;0.000;2022-12-07T21:53:48;6.10;90.40
70762;DHT22;58360;0.000;0.000;2022-12-07T21:56:35;6.00;90.50
70762;DHT22;58360;0.000;0.000;2022-12-07T21:59:03;6.00;90.70
70762;DHT22;58360;0.000;0.000;2022-12-07T22:01:31;6.00;90.80
70762;DHT22;58360;0.000;0.000;2022-12-07T22:04:00;6.10;90.70
70762;DHT22;58360;0.000;0.000;2022-12-07T22:06:26;6.00;90.70
70762;DHT22;58360;0.000;0.000;2022-12-07T22:08:52;6.10;90.70
70762;DHT22;58360;0.000;0.000;2022-12-07T22:11:19;6.10;90.50
70762;DHT22;58360;0.000;0.000;2022-12-07T22:13:45;6.10;90.50
70762;DHT22;58360;0.000;0.000;2022-12-07T22:16:30;6.20;90.10
70762;DHT22;58360;0.000;0.000;2022-12-07T22:18:56;6.30;89.70
70762;DHT22;58360;0.000;0.000;2022-12-07T22:21:22;6.50;88.40
70762;DHT22;58360;0.000;0.000;2022-12-07T22:23:49;6.50;88.90
70762;DHT22;58360;0.000;0.000;2022-12-07T22:26:15;6.40;89.10
70762;DHT22;58360;0.000;0.000;2022-12-07T22:28:42;6.50;88.70
70762;DHT22;58360;0.000;0.000;2022-12-07T22:31:11;6.30;89.60
70762;DHT22;58360;0.000;0.000;2022-12-07T22:33:37;6.10;90.10
70762;DHT22;58360;0.000;0.000;2022-12-07T22:36:04;6.00;90.50
70762;DHT22;58360;0.000;0.000;2022-12-07T22:38:30;6.00;90.50
70762;DHT22;58360;0.000;0.000;2022-12-07T22:40:57;6.10;90.40
70762;DHT22;58360;0.000;0.000;2022-12-07T22:43:24;6.20;90.10
70762;DHT22;58360;0.000;0.000;2022-12-07T22:45:54;6.30;89.50
70762;DHT22;58360;0.000;0.000;2022-12-07T22:48:20;6.10;90.10
70762;DHT22;58360;0.000;0.000;2022-12-07T22:50:46;6.00;90.30
70762;DHT22;58360;0.000;0.000;2022-12-07T22:53:11;6.10;90.20
70762;DHT22;58360;0.000;0.000;2022-12-07T22:55:38;6.10;90.20
70762;DHT22;58360;0.000;0.000;2022-12-07T22:58:04;6.00;90.50
70762;DHT22;58360;0.000;0.000;2022-12-07T23:00:30;5.90;90.90
70762;DHT22;58360;0.000;0.000;2022-12-07T23:02:55;5.80;91.00
70762;DHT22;58360;0.000;0.000;2022-12-07T23:05:21;5.90;91.00
70762;DHT22;58360;0.000;0.000;2022-12-07T23:07:47;5.80;91.10
70762;DHT22;58360;0.000;0.000;2022-12-07T23:10:12;5.90;91.20
70762;DHT22;58360;0.000;0.000;2022-12-07T23:12:38;6.00;91.00
70762;DHT22;58360;0.000;0.000;2022-12-07T23:15:22;6.00;90.70
70762;DHT22;58360;0.000;0.000;2022-12-07T23:17:48;6.10;90.60
70762;DHT22;58360;0.000;0.000;2022-12-07T23:20:13;6.10;90.60
70762;DHT22;58360;0.000;0.000;2022-12-07T23:22:39;6.00;90.70
70762;DHT22;58360;0.000;0.000;2022-12-07T23:25:05;6.00;90.90
70762;DHT22;58360;0.000;0.000;2022-12-07T23:27:31;6.00;90.90
70762;DHT22;58360;0.000;0.000;2022-12-07T23:29:56;6.00;91.00
70762;DHT22;58360;0.000;0.000;2022-12-07T23:32:22;6.10;90.70
70762;DHT22;58360;0.000;0.000;2022-12-07T23:34:48;6.00;91.00
70762;DHT22;58360;0.000;0.000;2022-12-07T23:37:13;6.10;90.50
70762;DHT22;58360;0.000;0.000;2022-12-07T23:39:39;6.20;90.30
70762;DHT22;58360;0.000;0.000;2022-12-07T23:42:04;6.10;90.40
70762;DHT22;58360;0.000;0.000;2022-12-07T23:44:30;6.20;90.40
70762;DHT22;58360;0.000;0.000;2022-12-07T23:46:56;6.30;90.00
70762;DHT22;58360;0.000;0.000;2022-12-07T23:49:21;6.20;90.30
70762;DHT22;58360;0.000;0.000;2022-12-07T23:51:47;6.30;90.10
70762;DHT22;58360;0.000;0.000;2022-12-07T23:54:13;6.40;89.60
70762;DHT22;58360;0.000;0.000;2022-12-07T23:56:39;6.20;90.40
70762;DHT22;58360;0.000;0.000;2022-12-07T23:59:05;6.20;90.30
